Terminal Aerodrome Forecast
Issued by NWS

Home | Current Version | Previous Version | Text Only | Print | Product List | Glossary On
Versions: 1 2 3 4 5 6 7 8 9 10 11 12 13 14 15
000
FTUS41 KGYX 120526
TAFRKD
TAF
KRKD 120526Z 1206/1306 05005KT P6SM BKN090
     FM121500 10008KT P6SM OVC008
     FM121600 10008KT 3SM RASN OVC015
     FM122100 12011G30KT 3SM RA OVC003
     FM130000 12014G27KT 5SM -SHRA OVC003 WS020/16040KT
      AMD LTD TO CLD VIS AND WIND=

USA.gov is the U.S. government's official web portal to all federal, state and local government web resources and services.